Killeen-Fort Hood Regional, TX

1:43 AM CDT on September 29, 2016 (GMT -0500)
Fort Hood | | Change Station

Elev 1014 ft 31.07 °N, 97.83 °W | Updated 45 minutes ago

Clear
Clear
63 °F
Feels Like 63 °F
N
6
Wind Variable Wind from NW

Today
High -- | Low -- °F
--% Chance of Precip.
Yesterday
High -- | Low -- °F
Precip. -- in
Pressure 30.09 in
Visibility 9.0 miles
Clouds Clear
Dew Point 53 °F
Humidity 71%
Rainfall 0.00 in
Snow Depth Not available.
7:24 AM 7:18 PM
Waning Crescent, 3% visible
METAR KGRK 290558Z AUTO 32005KT 9SM CLR 17/12 A3011 RMK AO2 SLP189 T01720118 10276 20172 403030145 52009
Pressure 30.09 in
Visibility 9.0 miles
Clouds Clear
Dew Point 53 °F
Humidity 71%
Rainfall 0.00 in
Snow Depth Not available.
7:24 AM 7:18 PM
Waning Crescent, 3% visible
METAR KGRK 290558Z AUTO 32005KT 9SM CLR 17/12 A3011 RMK AO2 SLP189 T01720118 10276 20172 403030145 52009

10-Day Weather Forecast

Almanac

Astronomy

Sep. 29, 2016 Rise Set
Actual Time
Civil Twilight
Nautical Twilight
Astronomical Twilight
Moon
Length of Visible Light
Length of Day
Tomorrow will be .
, % of the Moon is Illuminated

Today's Extremes

State Highs State Lows

Community

WunderPhotos

Upload Photos

1,942,446 photos uploaded!

WunderBlog® & News

Nearby

Air Quality

  Air Quality AQ Index Pollutant
Not available.

Snow Depth

Station Depth Elevation

Earthquake Activity

City Distance Mag. Time & Date
Minimum magnitude displayed is 2.5.

Coastal Water Temperatures

Place Temperature

Stations

Nearby Weather Stations

Station Location Temp. Windchill Dew Point Humidity Wind Precip. Elev Updated Type
                   

Watches & Warnings

There are currently no watches in effect.